sensor_id;sensor_type;location;lat;lon;timestamp;P1;durP1;ratioP1;P2;durP2;ratioP2
809;SDS011;387;48.772;9.186;2022-08-20T00:00:04;3.33;;;2.17;;
809;SDS011;387;48.772;9.186;2022-08-20T00:02:46;4.13;;;2.30;;
809;SDS011;387;48.772;9.186;2022-08-20T00:05:15;3.27;;;2.40;;
809;SDS011;387;48.772;9.186;2022-08-20T00:07:48;3.57;;;1.97;;
809;SDS011;387;48.772;9.186;2022-08-20T00:10:14;3.57;;;1.90;;
809;SDS011;387;48.772;9.186;2022-08-20T00:12:43;3.20;;;2.00;;
809;SDS011;387;48.772;9.186;2022-08-20T00:15:11;3.00;;;2.40;;
809;SDS011;387;48.772;9.186;2022-08-20T00:17:38;2.23;;;1.70;;
809;SDS011;387;48.772;9.186;2022-08-20T00:20:05;3.77;;;1.93;;
809;SDS011;387;48.772;9.186;2022-08-20T00:22:34;3.70;;;2.20;;
809;SDS011;387;48.772;9.186;2022-08-20T00:25:00;3.83;;;2.17;;
809;SDS011;387;48.772;9.186;2022-08-20T00:27:26;2.70;;;1.90;;
809;SDS011;387;48.772;9.186;2022-08-20T00:29:52;6.80;;;2.20;;
809;SDS011;387;48.772;9.186;2022-08-20T00:32:17;3.13;;;2.00;;
809;SDS011;387;48.772;9.186;2022-08-20T00:34:43;2.60;;;2.07;;
809;SDS011;387;48.772;9.186;2022-08-20T00:37:09;3.10;;;2.00;;
809;SDS011;387;48.772;9.186;2022-08-20T00:39:34;3.87;;;2.20;;
809;SDS011;387;48.772;9.186;2022-08-20T00:42:00;3.53;;;2.17;;
809;SDS011;387;48.772;9.186;2022-08-20T00:44:27;3.00;;;2.00;;
809;SDS011;387;48.772;9.186;2022-08-20T00:46:53;2.80;;;2.10;;
809;SDS011;387;48.772;9.186;2022-08-20T00:49:26;3.93;;;2.20;;
809;SDS011;387;48.772;9.186;2022-08-20T00:57:03;2.63;;;1.90;;
809;SDS011;387;48.772;9.186;2022-08-20T00:59:33;2.70;;;1.87;;
809;SDS011;387;48.772;9.186;2022-08-20T01:02:01;2.30;;;2.00;;
809;SDS011;387;48.772;9.186;2022-08-20T01:04:29;5.20;;;2.10;;
809;SDS011;387;48.772;9.186;2022-08-20T01:06:57;5.20;;;1.77;;
809;SDS011;387;48.772;9.186;2022-08-20T01:09:24;3.00;;;1.87;;
809;SDS011;387;48.772;9.186;2022-08-20T01:11:50;3.00;;;1.90;;
809;SDS011;387;48.772;9.186;2022-08-20T01:14:16;3.27;;;2.20;;
809;SDS011;387;48.772;9.186;2022-08-20T01:16:41;5.70;;;2.13;;
809;SDS011;387;48.772;9.186;2022-08-20T01:19:08;2.60;;;1.77;;
809;SDS011;387;48.772;9.186;2022-08-20T01:21:38;2.77;;;1.67;;
809;SDS011;387;48.772;9.186;2022-08-20T01:24:10;3.60;;;2.60;;
809;SDS011;387;48.772;9.186;2022-08-20T01:26:45;3.67;;;2.50;;
809;SDS011;387;48.772;9.186;2022-08-20T01:29:13;2.20;;;1.90;;
809;SDS011;387;48.772;9.186;2022-08-20T01:31:43;2.70;;;2.07;;
809;SDS011;387;48.772;9.186;2022-08-20T01:34:10;2.90;;;1.93;;
809;SDS011;387;48.772;9.186;2022-08-20T01:36:40;3.17;;;2.07;;
809;SDS011;387;48.772;9.186;2022-08-20T01:39:10;2.73;;;1.93;;
809;SDS011;387;48.772;9.186;2022-08-20T01:44:26;3.53;;;1.93;;
809;SDS011;387;48.772;9.186;2022-08-20T01:46:53;2.67;;;2.00;;
809;SDS011;387;48.772;9.186;2022-08-20T01:49:25;3.30;;;1.93;;
809;SDS011;387;48.772;9.186;2022-08-20T01:51:54;3.40;;;2.40;;
809;SDS011;387;48.772;9.186;2022-08-20T01:54:22;5.40;;;1.70;;
809;SDS011;387;48.772;9.186;2022-08-20T01:57:12;1.70;;;1.60;;
809;SDS011;387;48.772;9.186;2022-08-20T01:59:38;3.77;;;2.10;;
809;SDS011;387;48.772;9.186;2022-08-20T02:02:04;2.40;;;1.77;;
809;SDS011;387;48.772;9.186;2022-08-20T02:04:31;3.53;;;1.83;;
809;SDS011;387;48.772;9.186;2022-08-20T02:06:59;5.10;;;2.50;;
809;SDS011;387;48.772;9.186;2022-08-20T02:09:28;2.53;;;1.77;;
809;SDS011;387;48.772;9.186;2022-08-20T02:11:57;2.53;;;1.90;;
809;SDS011;387;48.772;9.186;2022-08-20T02:14:22;2.20;;;1.80;;
809;SDS011;387;48.772;9.186;2022-08-20T02:16:49;3.20;;;1.67;;
809;SDS011;387;48.772;9.186;2022-08-20T02:19:58;3.20;;;2.17;;
809;SDS011;387;48.772;9.186;2022-08-20T02:22:18;2.17;;;1.73;;
809;SDS011;387;48.772;9.186;2022-08-20T02:24:48;1.93;;;1.53;;
809;SDS011;387;48.772;9.186;2022-08-20T02:27:13;2.50;;;1.83;;
809;SDS011;387;48.772;9.186;2022-08-20T02:29:39;3.37;;;2.00;;
809;SDS011;387;48.772;9.186;2022-08-20T02:32:05;2.80;;;1.80;;
809;SDS011;387;48.772;9.186;2022-08-20T02:34:33;2.50;;;1.93;;
809;SDS011;387;48.772;9.186;2022-08-20T02:36:59;3.20;;;1.77;;
809;SDS011;387;48.772;9.186;2022-08-20T02:39:25;3.77;;;1.83;;
809;SDS011;387;48.772;9.186;2022-08-20T02:41:52;1.93;;;1.70;;
809;SDS011;387;48.772;9.186;2022-08-20T02:44:17;2.67;;;2.13;;
809;SDS011;387;48.772;9.186;2022-08-20T02:46:45;2.90;;;2.20;;
809;SDS011;387;48.772;9.186;2022-08-20T02:49:13;2.63;;;1.80;;
809;SDS011;387;48.772;9.186;2022-08-20T02:51:41;2.33;;;2.10;;
809;SDS011;387;48.772;9.186;2022-08-20T02:54:07;2.23;;;1.70;;
809;SDS011;387;48.772;9.186;2022-08-20T02:56:33;2.33;;;1.57;;
809;SDS011;387;48.772;9.186;2022-08-20T02:58:59;4.77;;;2.10;;
809;SDS011;387;48.772;9.186;2022-08-20T03:01:24;1.93;;;1.70;;
809;SDS011;387;48.772;9.186;2022-08-20T03:03:51;2.80;;;2.03;;
809;SDS011;387;48.772;9.186;2022-08-20T03:06:16;3.33;;;2.30;;
809;SDS011;387;48.772;9.186;2022-08-20T03:08:42;3.07;;;2.00;;
809;SDS011;387;48.772;9.186;2022-08-20T03:11:08;3.93;;;2.23;;
809;SDS011;387;48.772;9.186;2022-08-20T03:13:34;2.13;;;1.80;;
809;SDS011;387;48.772;9.186;2022-08-20T03:16:01;4.80;;;1.97;;
809;SDS011;387;48.772;9.186;2022-08-20T03:18:32;3.27;;;2.33;;
809;SDS011;387;48.772;9.186;2022-08-20T03:21:03;4.20;;;2.13;;
809;SDS011;387;48.772;9.186;2022-08-20T03:23:30;2.13;;;1.77;;
809;SDS011;387;48.772;9.186;2022-08-20T03:25:56;5.20;;;2.30;;
809;SDS011;387;48.772;9.186;2022-08-20T03:28:22;3.43;;;1.90;;
809;SDS011;387;48.772;9.186;2022-08-20T03:30:48;3.60;;;2.50;;
809;SDS011;387;48.772;9.186;2022-08-20T03:33:15;3.13;;;2.50;;
809;SDS011;387;48.772;9.186;2022-08-20T03:35:41;3.23;;;2.47;;
809;SDS011;387;48.772;9.186;2022-08-20T03:38:08;3.70;;;2.70;;
809;SDS011;387;48.772;9.186;2022-08-20T03:40:36;2.73;;;2.30;;
809;SDS011;387;48.772;9.186;2022-08-20T03:43:03;4.60;;;3.00;;
809;SDS011;387;48.772;9.186;2022-08-20T03:45:30;2.67;;;2.50;;
809;SDS011;387;48.772;9.186;2022-08-20T03:47:56;4.17;;;3.30;;
809;SDS011;387;48.772;9.186;2022-08-20T03:50:24;3.03;;;2.57;;
809;SDS011;387;48.772;9.186;2022-08-20T03:52:51;3.17;;;2.77;;
809;SDS011;387;48.772;9.186;2022-08-20T03:55:18;3.30;;;2.77;;
809;SDS011;387;48.772;9.186;2022-08-20T03:57:45;3.67;;;2.80;;
809;SDS011;387;48.772;9.186;2022-08-20T04:00:14;5.17;;;3.00;;
809;SDS011;387;48.772;9.186;2022-08-20T04:02:43;3.67;;;2.93;;
809;SDS011;387;48.772;9.186;2022-08-20T04:05:08;3.03;;;2.77;;
809;SDS011;387;48.772;9.186;2022-08-20T04:07:34;7.20;;;3.10;;
809;SDS011;387;48.772;9.186;2022-08-20T04:10:03;6.10;;;3.13;;
809;SDS011;387;48.772;9.186;2022-08-20T04:12:30;3.87;;;3.17;;
809;SDS011;387;48.772;9.186;2022-08-20T04:14:55;3.60;;;3.13;;
809;SDS011;387;48.772;9.186;2022-08-20T04:17:21;4.10;;;3.20;;
809;SDS011;387;48.772;9.186;2022-08-20T04:19:47;3.47;;;3.30;;
809;SDS011;387;48.772;9.186;2022-08-20T04:22:12;5.17;;;3.53;;
809;SDS011;387;48.772;9.186;2022-08-20T04:24:39;5.00;;;3.17;;
809;SDS011;387;48.772;9.186;2022-08-20T04:27:06;5.13;;;3.87;;
809;SDS011;387;48.772;9.186;2022-08-20T04:29:32;3.80;;;3.63;;
809;SDS011;387;48.772;9.186;2022-08-20T04:31:59;3.90;;;3.50;;
809;SDS011;387;48.772;9.186;2022-08-20T04:34:25;4.60;;;3.53;;
809;SDS011;387;48.772;9.186;2022-08-20T04:36:52;9.03;;;3.97;;
809;SDS011;387;48.772;9.186;2022-08-20T04:39:18;6.77;;;3.63;;
809;SDS011;387;48.772;9.186;2022-08-20T04:41:43;4.53;;;4.20;;
809;SDS011;387;48.772;9.186;2022-08-20T04:44:09;5.00;;;3.67;;
809;SDS011;387;48.772;9.186;2022-08-20T04:46:35;5.90;;;3.57;;
809;SDS011;387;48.772;9.186;2022-08-20T04:49:02;4.47;;;4.17;;
809;SDS011;387;48.772;9.186;2022-08-20T04:51:29;10.20;;;4.80;;
809;SDS011;387;48.772;9.186;2022-08-20T04:53:55;5.63;;;4.20;;
809;SDS011;387;48.772;9.186;2022-08-20T04:56:22;6.47;;;4.47;;
809;SDS011;387;48.772;9.186;2022-08-20T04:58:50;7.70;;;4.90;;
809;SDS011;387;48.772;9.186;2022-08-20T05:01:16;8.93;;;5.07;;
809;SDS011;387;48.772;9.186;2022-08-20T05:03:42;6.40;;;4.37;;
809;SDS011;387;48.772;9.186;2022-08-20T05:06:08;4.87;;;4.30;;
809;SDS011;387;48.772;9.186;2022-08-20T05:08:36;4.90;;;4.13;;
809;SDS011;387;48.772;9.186;2022-08-20T05:11:02;5.13;;;4.30;;
809;SDS011;387;48.772;9.186;2022-08-20T05:13:29;5.00;;;4.63;;
809;SDS011;387;48.772;9.186;2022-08-20T05:15:55;7.33;;;4.33;;
809;SDS011;387;48.772;9.186;2022-08-20T05:18:23;6.83;;;4.50;;
809;SDS011;387;48.772;9.186;2022-08-20T05:20:50;5.53;;;4.40;;
809;SDS011;387;48.772;9.186;2022-08-20T05:23:17;7.20;;;4.90;;
809;SDS011;387;48.772;9.186;2022-08-20T05:25:44;6.80;;;4.87;;
809;SDS011;387;48.772;9.186;2022-08-20T05:28:19;7.40;;;4.77;;
809;SDS011;387;48.772;9.186;2022-08-20T05:30:47;5.70;;;4.90;;
809;SDS011;387;48.772;9.186;2022-08-20T05:33:14;6.40;;;4.63;;
809;SDS011;387;48.772;9.186;2022-08-20T05:35:43;5.43;;;4.50;;
809;SDS011;387;48.772;9.186;2022-08-20T05:38:09;5.93;;;4.70;;
809;SDS011;387;48.772;9.186;2022-08-20T05:40:37;5.27;;;4.37;;
809;SDS011;387;48.772;9.186;2022-08-20T05:43:04;5.73;;;4.60;;
809;SDS011;387;48.772;9.186;2022-08-20T05:45:30;4.90;;;3.97;;
809;SDS011;387;48.772;9.186;2022-08-20T05:47:57;7.20;;;4.60;;
809;SDS011;387;48.772;9.186;2022-08-20T05:50:23;6.20;;;4.60;;
809;SDS011;387;48.772;9.186;2022-08-20T05:52:49;7.23;;;4.20;;
809;SDS011;387;48.772;9.186;2022-08-20T05:55:15;5.60;;;4.37;;
809;SDS011;387;48.772;9.186;2022-08-20T05:57:41;5.40;;;4.40;;
809;SDS011;387;48.772;9.186;2022-08-20T06:00:10;6.50;;;4.50;;
809;SDS011;387;48.772;9.186;2022-08-20T06:02:37;7.20;;;4.60;;
809;SDS011;387;48.772;9.186;2022-08-20T06:05:22;6.23;;;5.10;;
809;SDS011;387;48.772;9.186;2022-08-20T06:07:48;5.20;;;4.73;;
809;SDS011;387;48.772;9.186;2022-08-20T06:10:14;4.77;;;4.33;;
809;SDS011;387;48.772;9.186;2022-08-20T06:12:40;5.50;;;4.20;;
809;SDS011;387;48.772;9.186;2022-08-20T06:15:08;5.60;;;4.97;;
809;SDS011;387;48.772;9.186;2022-08-20T06:17:34;5.57;;;4.40;;
809;SDS011;387;48.772;9.186;2022-08-20T06:20:00;7.10;;;4.53;;
809;SDS011;387;48.772;9.186;2022-08-20T06:22:30;7.77;;;4.23;;
809;SDS011;387;48.772;9.186;2022-08-20T06:24:56;7.60;;;4.50;;
809;SDS011;387;48.772;9.186;2022-08-20T06:27:21;7.63;;;4.83;;
809;SDS011;387;48.772;9.186;2022-08-20T06:29:47;9.17;;;4.90;;
809;SDS011;387;48.772;9.186;2022-08-20T06:32:14;5.13;;;4.13;;
809;SDS011;387;48.772;9.186;2022-08-20T06:34:40;5.70;;;4.53;;
809;SDS011;387;48.772;9.186;2022-08-20T06:37:15;4.77;;;4.53;;
809;SDS011;387;48.772;9.186;2022-08-20T06:39:44;5.93;;;4.90;;
809;SDS011;387;48.772;9.186;2022-08-20T06:42:09;6.87;;;4.50;;
809;SDS011;387;48.772;9.186;2022-08-20T06:44:35;5.80;;;4.37;;
809;SDS011;387;48.772;9.186;2022-08-20T06:47:03;9.63;;;4.97;;
809;SDS011;387;48.772;9.186;2022-08-20T06:49:29;6.37;;;4.60;;
809;SDS011;387;48.772;9.186;2022-08-20T06:51:57;5.20;;;4.20;;
809;SDS011;387;48.772;9.186;2022-08-20T06:54:23;6.17;;;5.10;;
809;SDS011;387;48.772;9.186;2022-08-20T06:56:49;5.87;;;4.90;;
809;SDS011;387;48.772;9.186;2022-08-20T06:59:17;6.03;;;4.53;;
809;SDS011;387;48.772;9.186;2022-08-20T07:01:43;5.60;;;4.23;;
809;SDS011;387;48.772;9.186;2022-08-20T07:04:09;6.40;;;4.50;;
809;SDS011;387;48.772;9.186;2022-08-20T07:06:34;5.30;;;4.17;;
809;SDS011;387;48.772;9.186;2022-08-20T07:09:00;5.20;;;4.23;;
809;SDS011;387;48.772;9.186;2022-08-20T07:11:26;6.47;;;4.80;;
809;SDS011;387;48.772;9.186;2022-08-20T07:13:52;6.67;;;4.47;;
809;SDS011;387;48.772;9.186;2022-08-20T07:16:17;10.17;;;4.97;;
809;SDS011;387;48.772;9.186;2022-08-20T07:18:43;6.30;;;4.43;;
809;SDS011;387;48.772;9.186;2022-08-20T07:21:08;6.00;;;4.33;;
809;SDS011;387;48.772;9.186;2022-08-20T07:23:36;7.87;;;4.60;;
809;SDS011;387;48.772;9.186;2022-08-20T07:26:01;5.83;;;4.50;;
809;SDS011;387;48.772;9.186;2022-08-20T07:28:27;6.73;;;4.60;;
809;SDS011;387;48.772;9.186;2022-08-20T07:30:55;6.57;;;4.73;;
809;SDS011;387;48.772;9.186;2022-08-20T07:33:40;4.90;;;4.17;;
809;SDS011;387;48.772;9.186;2022-08-20T07:36:07;5.07;;;4.10;;
809;SDS011;387;48.772;9.186;2022-08-20T07:38:33;6.27;;;4.17;;
809;SDS011;387;48.772;9.186;2022-08-20T07:41:03;5.53;;;4.30;;
809;SDS011;387;48.772;9.186;2022-08-20T07:43:37;5.43;;;4.37;;
809;SDS011;387;48.772;9.186;2022-08-20T07:46:03;5.80;;;4.40;;
809;SDS011;387;48.772;9.186;2022-08-20T07:48:34;8.50;;;4.60;;
809;SDS011;387;48.772;9.186;2022-08-20T07:51:03;7.20;;;4.53;;
809;SDS011;387;48.772;9.186;2022-08-20T07:53:30;7.80;;;4.17;;
809;SDS011;387;48.772;9.186;2022-08-20T07:55:59;7.67;;;4.40;;
809;SDS011;387;48.772;9.186;2022-08-20T07:58:26;7.70;;;4.70;;
809;SDS011;387;48.772;9.186;2022-08-20T08:00:52;6.07;;;4.30;;
809;SDS011;387;48.772;9.186;2022-08-20T08:03:17;4.50;;;3.77;;
809;SDS011;387;48.772;9.186;2022-08-20T08:05:44;6.07;;;4.40;;
809;SDS011;387;48.772;9.186;2022-08-20T08:08:12;4.80;;;4.23;;
809;SDS011;387;48.772;9.186;2022-08-20T08:10:42;6.80;;;3.80;;
809;SDS011;387;48.772;9.186;2022-08-20T08:13:10;14.40;;;4.40;;
809;SDS011;387;48.772;9.186;2022-08-20T08:15:38;4.90;;;4.10;;
809;SDS011;387;48.772;9.186;2022-08-20T08:18:10;4.90;;;4.20;;
809;SDS011;387;48.772;9.186;2022-08-20T08:20:45;5.07;;;4.43;;
809;SDS011;387;48.772;9.186;2022-08-20T08:23:17;4.97;;;4.20;;
809;SDS011;387;48.772;9.186;2022-08-20T08:25:44;4.90;;;3.87;;
809;SDS011;387;48.772;9.186;2022-08-20T08:28:10;5.97;;;4.40;;
809;SDS011;387;48.772;9.186;2022-08-20T08:30:45;7.80;;;4.30;;
809;SDS011;387;48.772;9.186;2022-08-20T08:33:19;6.63;;;4.47;;
809;SDS011;387;48.772;9.186;2022-08-20T08:35:53;6.27;;;4.37;;
809;SDS011;387;48.772;9.186;2022-08-20T08:38:20;6.47;;;4.90;;
809;SDS011;387;48.772;9.186;2022-08-20T08:40:48;7.90;;;5.27;;
809;SDS011;387;48.772;9.186;2022-08-20T08:43:15;5.27;;;4.53;;
809;SDS011;387;48.772;9.186;2022-08-20T08:45:44;8.40;;;5.43;;
809;SDS011;387;48.772;9.186;2022-08-20T08:48:12;5.90;;;4.97;;
809;SDS011;387;48.772;9.186;2022-08-20T08:50:40;7.40;;;4.50;;
809;SDS011;387;48.772;9.186;2022-08-20T08:53:09;5.97;;;4.47;;
809;SDS011;387;48.772;9.186;2022-08-20T08:55:42;6.33;;;4.50;;
809;SDS011;387;48.772;9.186;2022-08-20T08:58:08;6.10;;;4.13;;
809;SDS011;387;48.772;9.186;2022-08-20T09:00:34;6.20;;;4.40;;
809;SDS011;387;48.772;9.186;2022-08-20T09:03:03;6.30;;;4.40;;
809;SDS011;387;48.772;9.186;2022-08-20T09:05:51;5.60;;;4.43;;
809;SDS011;387;48.772;9.186;2022-08-20T09:08:19;6.17;;;5.00;;
809;SDS011;387;48.772;9.186;2022-08-20T09:10:49;6.03;;;4.57;;
809;SDS011;387;48.772;9.186;2022-08-20T09:13:15;8.30;;;4.40;;
809;SDS011;387;48.772;9.186;2022-08-20T09:15:41;6.20;;;4.53;;
809;SDS011;387;48.772;9.186;2022-08-20T09:18:06;4.80;;;4.00;;
809;SDS011;387;48.772;9.186;2022-08-20T09:20:32;5.60;;;4.47;;
809;SDS011;387;48.772;9.186;2022-08-20T09:22:59;9.43;;;5.20;;
809;SDS011;387;48.772;9.186;2022-08-20T09:25:24;5.73;;;5.17;;
809;SDS011;387;48.772;9.186;2022-08-20T09:27:50;6.03;;;4.70;;
809;SDS011;387;48.772;9.186;2022-08-20T09:30:15;7.47;;;5.20;;
809;SDS011;387;48.772;9.186;2022-08-20T09:32:41;8.60;;;4.90;;
809;SDS011;387;48.772;9.186;2022-08-20T09:35:07;4.87;;;4.20;;
809;SDS011;387;48.772;9.186;2022-08-20T09:37:34;10.97;;;4.00;;
809;SDS011;387;48.772;9.186;2022-08-20T09:40:01;4.20;;;3.33;;
809;SDS011;387;48.772;9.186;2022-08-20T09:42:29;5.60;;;3.83;;
809;SDS011;387;48.772;9.186;2022-08-20T09:44:56;7.53;;;3.90;;
809;SDS011;387;48.772;9.186;2022-08-20T09:47:23;4.87;;;3.00;;
809;SDS011;387;48.772;9.186;2022-08-20T09:49:49;6.20;;;3.10;;
809;SDS011;387;48.772;9.186;2022-08-20T09:52:26;3.47;;;2.40;;
809;SDS011;387;48.772;9.186;2022-08-20T09:54:54;4.13;;;2.83;;
809;SDS011;387;48.772;9.186;2022-08-20T09:57:38;3.17;;;2.60;;
809;SDS011;387;48.772;9.186;2022-08-20T10:00:05;3.20;;;2.90;;
809;SDS011;387;48.772;9.186;2022-08-20T10:02:33;5.33;;;3.00;;
809;SDS011;387;48.772;9.186;2022-08-20T10:04:59;3.40;;;2.67;;
809;SDS011;387;48.772;9.186;2022-08-20T10:07:24;3.43;;;2.60;;
809;SDS011;387;48.772;9.186;2022-08-20T10:09:50;4.63;;;2.60;;
809;SDS011;387;48.772;9.186;2022-08-20T10:12:16;6.20;;;3.23;;
809;SDS011;387;48.772;9.186;2022-08-20T10:14:41;2.60;;;2.10;;
809;SDS011;387;48.772;9.186;2022-08-20T10:17:07;3.47;;;2.00;;
809;SDS011;387;48.772;9.186;2022-08-20T10:19:33;2.80;;;2.27;;
809;SDS011;387;48.772;9.186;2022-08-20T10:21:58;3.00;;;2.83;;
809;SDS011;387;48.772;9.186;2022-08-20T10:24:24;5.70;;;3.30;;
809;SDS011;387;48.772;9.186;2022-08-20T10:26:53;3.57;;;3.27;;
809;SDS011;387;48.772;9.186;2022-08-20T10:29:20;3.37;;;3.10;;
809;SDS011;387;48.772;9.186;2022-08-20T10:31:46;3.60;;;2.83;;
809;SDS011;387;48.772;9.186;2022-08-20T10:34:11;2.63;;;2.10;;
809;SDS011;387;48.772;9.186;2022-08-20T10:36:37;1.90;;;1.80;;
809;SDS011;387;48.772;9.186;2022-08-20T10:39:03;1.87;;;1.40;;
809;SDS011;387;48.772;9.186;2022-08-20T10:41:28;2.50;;;1.90;;
809;SDS011;387;48.772;9.186;2022-08-20T10:43:54;2.90;;;1.77;;
809;SDS011;387;48.772;9.186;2022-08-20T10:46:19;2.00;;;1.90;;
809;SDS011;387;48.772;9.186;2022-08-20T10:48:45;2.00;;;1.57;;
809;SDS011;387;48.772;9.186;2022-08-20T10:51:11;3.10;;;1.60;;
809;SDS011;387;48.772;9.186;2022-08-20T10:53:36;2.10;;;1.77;;
809;SDS011;387;48.772;9.186;2022-08-20T10:56:03;2.33;;;1.80;;
809;SDS011;387;48.772;9.186;2022-08-20T10:58:28;2.90;;;1.97;;
809;SDS011;387;48.772;9.186;2022-08-20T11:00:55;3.10;;;2.20;;
809;SDS011;387;48.772;9.186;2022-08-20T11:03:20;1.70;;;1.63;;
809;SDS011;387;48.772;9.186;2022-08-20T11:05:46;2.20;;;1.70;;
809;SDS011;387;48.772;9.186;2022-08-20T11:08:12;3.63;;;2.20;;
809;SDS011;387;48.772;9.186;2022-08-20T11:10:38;1.80;;;1.80;;
809;SDS011;387;48.772;9.186;2022-08-20T11:13:04;3.90;;;1.63;;
809;SDS011;387;48.772;9.186;2022-08-20T11:15:32;1.73;;;1.53;;
809;SDS011;387;48.772;9.186;2022-08-20T11:18:00;2.07;;;1.40;;
809;SDS011;387;48.772;9.186;2022-08-20T11:20:26;2.10;;;1.20;;
809;SDS011;387;48.772;9.186;2022-08-20T11:22:52;2.67;;;1.57;;
809;SDS011;387;48.772;9.186;2022-08-20T11:25:18;2.37;;;1.40;;
809;SDS011;387;48.772;9.186;2022-08-20T11:27:45;2.53;;;1.33;;
809;SDS011;387;48.772;9.186;2022-08-20T11:30:15;1.60;;;1.30;;
809;SDS011;387;48.772;9.186;2022-08-20T11:32:43;6.80;;;1.80;;
809;SDS011;387;48.772;9.186;2022-08-20T11:35:09;3.67;;;1.80;;
809;SDS011;387;48.772;9.186;2022-08-20T11:37:35;3.07;;;1.70;;
809;SDS011;387;48.772;9.186;2022-08-20T11:40:00;1.53;;;1.40;;
809;SDS011;387;48.772;9.186;2022-08-20T11:42:26;2.97;;;1.90;;
809;SDS011;387;48.772;9.186;2022-08-20T11:44:52;1.50;;;1.10;;
809;SDS011;387;48.772;9.186;2022-08-20T11:47:19;1.50;;;1.50;;
809;SDS011;387;48.772;9.186;2022-08-20T11:49:59;2.03;;;1.80;;
809;SDS011;387;48.772;9.186;2022-08-20T11:52:26;4.10;;;1.70;;
809;SDS011;387;48.772;9.186;2022-08-20T11:54:53;3.13;;;1.80;;
809;SDS011;387;48.772;9.186;2022-08-20T11:57:23;2.23;;;1.30;;
809;SDS011;387;48.772;9.186;2022-08-20T11:59:50;1.60;;;1.23;;
809;SDS011;387;48.772;9.186;2022-08-20T12:02:17;2.17;;;1.73;;
809;SDS011;387;48.772;9.186;2022-08-20T12:04:42;1.60;;;1.23;;
809;SDS011;387;48.772;9.186;2022-08-20T12:07:09;2.70;;;1.20;;
809;SDS011;387;48.772;9.186;2022-08-20T12:09:37;1.90;;;1.23;;
809;SDS011;387;48.772;9.186;2022-08-20T12:12:02;1.30;;;1.10;;
809;SDS011;387;48.772;9.186;2022-08-20T12:14:28;1.90;;;1.30;;
809;SDS011;387;48.772;9.186;2022-08-20T12:16:54;2.20;;;1.27;;
809;SDS011;387;48.772;9.186;2022-08-20T12:19:19;2.57;;;1.47;;
809;SDS011;387;48.772;9.186;2022-08-20T12:21:45;1.67;;;1.30;;
809;SDS011;387;48.772;9.186;2022-08-20T12:24:10;1.73;;;1.43;;
809;SDS011;387;48.772;9.186;2022-08-20T12:26:36;3.43;;;1.50;;
809;SDS011;387;48.772;9.186;2022-08-20T12:29:02;1.90;;;1.60;;
809;SDS011;387;48.772;9.186;2022-08-20T12:31:27;1.87;;;1.30;;
809;SDS011;387;48.772;9.186;2022-08-20T12:33:53;2.00;;;1.10;;
809;SDS011;387;48.772;9.186;2022-08-20T12:36:19;1.93;;;1.60;;
809;SDS011;387;48.772;9.186;2022-08-20T12:38:44;2.30;;;1.50;;
809;SDS011;387;48.772;9.186;2022-08-20T12:41:10;1.30;;;1.30;;
809;SDS011;387;48.772;9.186;2022-08-20T12:43:35;1.70;;;1.47;;
809;SDS011;387;48.772;9.186;2022-08-20T12:46:01;1.70;;;1.30;;
809;SDS011;387;48.772;9.186;2022-08-20T12:48:27;1.40;;;1.20;;
809;SDS011;387;48.772;9.186;2022-08-20T12:50:53;1.53;;;1.23;;
809;SDS011;387;48.772;9.186;2022-08-20T12:53:18;1.87;;;1.47;;
809;SDS011;387;48.772;9.186;2022-08-20T12:55:44;3.93;;;1.60;;
809;SDS011;387;48.772;9.186;2022-08-20T12:58:10;2.97;;;1.50;;
809;SDS011;387;48.772;9.186;2022-08-20T13:00:40;1.47;;;1.40;;
809;SDS011;387;48.772;9.186;2022-08-20T13:03:08;3.57;;;1.70;;
809;SDS011;387;48.772;9.186;2022-08-20T13:05:35;2.30;;;1.87;;
809;SDS011;387;48.772;9.186;2022-08-20T13:08:06;2.63;;;1.90;;
809;SDS011;387;48.772;9.186;2022-08-20T13:10:34;4.40;;;1.97;;
809;SDS011;387;48.772;9.186;2022-08-20T13:13:02;4.20;;;2.53;;
809;SDS011;387;48.772;9.186;2022-08-20T13:15:29;5.23;;;2.83;;
809;SDS011;387;48.772;9.186;2022-08-20T13:17:57;3.07;;;2.40;;
809;SDS011;387;48.772;9.186;2022-08-20T13:20:25;3.33;;;2.53;;
809;SDS011;387;48.772;9.186;2022-08-20T13:22:52;3.83;;;2.90;;
809;SDS011;387;48.772;9.186;2022-08-20T13:25:18;6.90;;;3.13;;
809;SDS011;387;48.772;9.186;2022-08-20T13:27:45;3.57;;;2.53;;
809;SDS011;387;48.772;9.186;2022-08-20T13:30:15;2.90;;;2.40;;
809;SDS011;387;48.772;9.186;2022-08-20T13:32:42;3.23;;;2.20;;
809;SDS011;387;48.772;9.186;2022-08-20T13:35:09;3.80;;;2.20;;
809;SDS011;387;48.772;9.186;2022-08-20T13:37:36;3.03;;;2.23;;
809;SDS011;387;48.772;9.186;2022-08-20T13:40:02;2.07;;;1.93;;
809;SDS011;387;48.772;9.186;2022-08-20T13:42:28;2.73;;;2.20;;
809;SDS011;387;48.772;9.186;2022-08-20T13:44:54;3.40;;;2.07;;
809;SDS011;387;48.772;9.186;2022-08-20T13:47:21;2.40;;;2.00;;
809;SDS011;387;48.772;9.186;2022-08-20T13:49:53;3.53;;;2.20;;
809;SDS011;387;48.772;9.186;2022-08-20T13:52:20;3.70;;;3.37;;
809;SDS011;387;48.772;9.186;2022-08-20T13:54:46;3.30;;;2.90;;
809;SDS011;387;48.772;9.186;2022-08-20T13:57:13;2.83;;;2.00;;
809;SDS011;387;48.772;9.186;2022-08-20T13:59:41;3.60;;;2.40;;
809;SDS011;387;48.772;9.186;2022-08-20T14:02:10;3.93;;;2.60;;
809;SDS011;387;48.772;9.186;2022-08-20T14:04:37;2.17;;;1.77;;
809;SDS011;387;48.772;9.186;2022-08-20T14:07:09;4.83;;;2.17;;
809;SDS011;387;48.772;9.186;2022-08-20T14:09:40;2.37;;;1.97;;
809;SDS011;387;48.772;9.186;2022-08-20T14:12:07;2.50;;;2.07;;
809;SDS011;387;48.772;9.186;2022-08-20T14:14:34;2.50;;;2.10;;
809;SDS011;387;48.772;9.186;2022-08-20T14:17:11;6.10;;;3.70;;
809;SDS011;387;48.772;9.186;2022-08-20T14:19:42;2.53;;;2.03;;
809;SDS011;387;48.772;9.186;2022-08-20T14:22:08;2.37;;;1.67;;
809;SDS011;387;48.772;9.186;2022-08-20T14:24:34;3.43;;;2.50;;
809;SDS011;387;48.772;9.186;2022-08-20T14:27:03;2.30;;;1.93;;
809;SDS011;387;48.772;9.186;2022-08-20T14:29:33;2.90;;;2.10;;
809;SDS011;387;48.772;9.186;2022-08-20T14:32:00;4.20;;;1.90;;
809;SDS011;387;48.772;9.186;2022-08-20T14:34:26;3.37;;;2.00;;
809;SDS011;387;48.772;9.186;2022-08-20T14:36:51;2.70;;;1.63;;
809;SDS011;387;48.772;9.186;2022-08-20T14:39:17;3.33;;;2.53;;
809;SDS011;387;48.772;9.186;2022-08-20T14:41:43;6.83;;;3.80;;
809;SDS011;387;48.772;9.186;2022-08-20T14:44:08;7.20;;;3.70;;
809;SDS011;387;48.772;9.186;2022-08-20T14:46:34;6.20;;;3.97;;
809;SDS011;387;48.772;9.186;2022-08-20T14:48:59;5.43;;;2.53;;
809;SDS011;387;48.772;9.186;2022-08-20T14:51:25;4.10;;;2.53;;
809;SDS011;387;48.772;9.186;2022-08-20T14:53:51;3.23;;;2.00;;
809;SDS011;387;48.772;9.186;2022-08-20T14:56:16;2.33;;;1.80;;
809;SDS011;387;48.772;9.186;2022-08-20T14:58:42;1.77;;;1.40;;
809;SDS011;387;48.772;9.186;2022-08-20T15:01:08;2.83;;;2.03;;
809;SDS011;387;48.772;9.186;2022-08-20T15:03:33;2.47;;;1.90;;
809;SDS011;387;48.772;9.186;2022-08-20T15:05:59;2.23;;;1.90;;
809;SDS011;387;48.772;9.186;2022-08-20T15:08:25;1.93;;;1.83;;
809;SDS011;387;48.772;9.186;2022-08-20T15:10:51;2.53;;;1.97;;
809;SDS011;387;48.772;9.186;2022-08-20T15:13:16;2.60;;;2.20;;
809;SDS011;387;48.772;9.186;2022-08-20T15:15:42;1.70;;;1.70;;
809;SDS011;387;48.772;9.186;2022-08-20T15:18:08;3.57;;;2.60;;
809;SDS011;387;48.772;9.186;2022-08-20T15:20:34;2.33;;;2.20;;
809;SDS011;387;48.772;9.186;2022-08-20T15:23:00;5.70;;;1.83;;
809;SDS011;387;48.772;9.186;2022-08-20T15:25:28;2.23;;;2.00;;
809;SDS011;387;48.772;9.186;2022-08-20T15:27:57;2.20;;;2.00;;
809;SDS011;387;48.772;9.186;2022-08-20T15:30:24;4.30;;;1.87;;
809;SDS011;387;48.772;9.186;2022-08-20T15:32:52;2.50;;;2.17;;
809;SDS011;387;48.772;9.186;2022-08-20T15:35:18;3.30;;;2.47;;
809;SDS011;387;48.772;9.186;2022-08-20T15:37:45;2.70;;;2.00;;
809;SDS011;387;48.772;9.186;2022-08-20T15:40:13;2.63;;;1.90;;
809;SDS011;387;48.772;9.186;2022-08-20T15:42:43;2.30;;;2.17;;
809;SDS011;387;48.772;9.186;2022-08-20T15:45:09;5.70;;;2.17;;
809;SDS011;387;48.772;9.186;2022-08-20T15:47:37;2.90;;;2.20;;
809;SDS011;387;48.772;9.186;2022-08-20T15:52:54;4.67;;;2.87;;
809;SDS011;387;48.772;9.186;2022-08-20T15:55:22;2.97;;;2.10;;